Time;durP1;ratioP1;P1;durP2;ratioP2;P2;SDS_P1;SDS_P2;PMS_P1;PMS_P2;Temp;Humidity;BMP_temperature;BMP_pressure;BME280_temperature;BME280_humidity;BME280_pressure;Samples;Min_cycle;Max_cycle;Signal;HPM_P1;HPM_P2
2022/12/31 00:01:08;;;;;;;0.63;0.40;;;8.30;99.90;;;;;;5004904;28;20483;-47
2022/12/31 00:03:37;;;;;;;0.50;0.40;;;8.30;99.90;;;;;;4995818;28;20434;-46
2022/12/31 00:06:13;;;;;;;0.60;0.40;;;8.30;99.90;;;;;;4999766;28;20222;-45
2022/12/31 00:08:42;;;;;;;0.60;0.40;;;8.30;99.90;;;;;;4981480;28;20820;-49
2022/12/31 00:11:12;;;;;;;0.63;0.30;;;8.30;99.90;;;;;;4977371;28;20914;-48
2022/12/31 00:13:41;;;;;;;0.73;0.50;;;8.30;99.90;;;;;;4986017;28;20433;-48
2022/12/31 00:16:15;;;;;;;0.40;0.30;;;8.30;99.90;;;;;;4982137;28;20212;-46
2022/12/31 00:18:45;;;;;;;0.50;0.40;;;8.30;99.90;;;;;;4980754;28;20522;-47
2022/12/31 00:21:14;;;;;;;0.50;0.30;;;8.30;99.90;;;;;;4988617;28;20749;-48
2022/12/31 00:23:43;;;;;;;0.50;0.30;;;8.30;99.90;;;;;;4978986;28;20207;-48
2022/12/31 00:26:13;;;;;;;0.40;0.30;;;8.30;99.90;;;;;;4987091;28;20206;-48
2022/12/31 00:28:42;;;;;;;0.70;0.50;;;8.30;99.90;;;;;;4980049;28;20213;-46
2022/12/31 00:31:14;;;;;;;0.40;0.30;;;8.30;99.90;;;;;;4984598;28;20459;-47
2022/12/31 00:33:43;;;;;;;0.63;0.55;;;8.30;99.90;;;;;;4979668;28;20209;-47
2022/12/31 00:36:13;;;;;;;0.70;0.40;;;8.30;99.90;;;;;;4983901;28;20288;-46
2022/12/31 00:38:44;;;;;;;0.70;0.40;;;8.30;99.90;;;;;;4984122;28;20210;-47
2022/12/31 00:41:13;;;;;;;0.60;0.40;;;8.30;99.90;;;;;;4982032;28;20479;-47
2022/12/31 00:43:43;;;;;;;0.50;0.40;;;8.30;99.90;;;;;;4983169;28;20191;-46
2022/12/31 00:46:16;;;;;;;0.50;0.40;;;8.30;99.90;;;;;;4986702;28;20213;-46
2022/12/31 00:48:45;;;;;;;0.70;0.50;;;8.40;99.90;;;;;;4975218;28;20261;-46
2022/12/31 00:51:15;;;;;;;0.50;0.40;;;8.30;99.90;;;;;;4988292;28;20456;-47
2022/12/31 00:53:44;;;;;;;0.50;0.30;;;8.30;99.90;;;;;;4984260;28;20190;-47
2022/12/31 00:56:15;;;;;;;0.50;0.30;;;8.30;99.90;;;;;;5001074;28;20222;-47
2022/12/31 00:58:44;;;;;;;0.60;0.40;;;8.40;99.90;;;;;;5002627;28;20465;-47
2022/12/31 01:01:17;;;;;;;0.40;0.30;;;8.40;99.90;;;;;;5002443;28;20561;-46
2022/12/31 01:03:47;;;;;;;0.95;0.40;;;8.40;99.90;;;;;;4984638;28;20441;-48
2022/12/31 01:06:16;;;;;;;0.83;0.40;;;8.40;99.90;;;;;;4990571;28;20244;-48
2022/12/31 01:08:45;;;;;;;0.70;0.43;;;8.40;99.90;;;;;;5002972;28;20486;-46
2022/12/31 01:11:20;;;;;;;0.40;0.40;;;8.40;99.90;;;;;;4989743;28;20473;-46
2022/12/31 01:13:52;;;;;;;0.50;0.30;;;8.40;99.90;;;;;;4983967;28;20210;-50
2022/12/31 01:16:24;;;;;;;0.50;0.37;;;8.40;99.90;;;;;;4978799;28;20483;-46
2022/12/31 01:18:53;;;;;;;0.55;0.40;;;8.40;99.90;;;;;;4978243;28;20468;-46
2022/12/31 01:21:22;;;;;;;0.50;0.30;;;8.40;99.90;;;;;;4986941;28;20713;-47
2022/12/31 01:23:51;;;;;;;0.50;0.30;;;8.40;99.90;;;;;;4976230;28;20453;-48
2022/12/31 01:26:20;;;;;;;0.50;0.30;;;8.40;99.90;;;;;;4987392;28;20527;-46
2022/12/31 01:28:49;;;;;;;0.60;0.40;;;8.40;99.90;;;;;;5004375;28;20646;-46
2022/12/31 01:31:19;;;;;;;0.55;0.38;;;8.40;99.90;;;;;;4989425;28;20287;-46
2022/12/31 01:33:50;;;;;;;0.50;0.40;;;8.40;99.90;;;;;;4985826;28;20222;-49
2022/12/31 01:36:20;;;;;;;0.50;0.40;;;8.40;99.90;;;;;;4996030;28;20232;-48
2022/12/31 01:38:57;;;;;;;0.80;0.40;;;8.40;99.90;;;;;;4983053;28;20465;-47
2022/12/31 01:41:27;;;;;;;0.50;0.30;;;8.50;99.90;;;;;;4988600;28;20496;-46
2022/12/31 01:43:57;;;;;;;0.60;0.30;;;8.50;99.90;;;;;;4984203;28;20450;-47
2022/12/31 01:46:34;;;;;;;0.50;0.40;;;8.50;99.90;;;;;;5003849;28;20240;-47
2022/12/31 01:49:12;;;;;;;0.40;0.30;;;8.50;99.90;;;;;;4989524;28;20458;-47
2022/12/31 01:51:43;;;;;;;0.50;0.40;;;8.50;99.90;;;;;;4978381;28;20939;-48
2022/12/31 01:54:15;;;;;;;1.20;0.40;;;8.50;99.90;;;;;;4987460;28;20453;-47
2022/12/31 01:56:46;;;;;;;0.50;0.30;;;8.50;99.90;;;;;;4983237;28;20465;-48
2022/12/31 01:59:17;;;;;;;0.50;0.40;;;8.50;99.90;;;;;;4980438;28;20222;-48
2022/12/31 02:01:47;;;;;;;0.50;0.30;;;8.50;99.90;;;;;;4987423;28;20504;-48
2022/12/31 02:04:17;;;;;;;0.50;0.33;;;8.50;99.90;;;;;;4981303;28;20432;-46
2022/12/31 02:06:50;;;;;;;0.50;0.33;;;8.50;99.90;;;;;;5000328;28;20527;-47
2022/12/31 02:09:18;;;;;;;0.67;0.30;;;8.50;99.90;;;;;;4974395;28;20475;-48
2022/12/31 02:11:47;;;;;;;0.60;0.30;;;8.50;99.90;;;;;;4974399;28;20705;-47
2022/12/31 02:14:18;;;;;;;0.50;0.30;;;8.50;99.90;;;;;;4979466;28;20430;-47
2022/12/31 02:16:54;;;;;;;0.40;0.30;;;8.50;99.90;;;;;;4973419;28;20465;-48
2022/12/31 02:19:57;;;;;;;0.40;0.20;;;8.50;99.90;;;;;;4988416;28;20218;-47
2022/12/31 02:22:43;;;;;;;0.50;0.30;;;8.50;99.90;;;;;;4985572;28;21011;-46
2022/12/31 02:25:46;;;;;;;0.60;0.40;;;8.60;99.90;;;;;;4990440;28;20949;-47
2022/12/31 02:28:29;;;;;;;0.50;0.30;;;8.60;99.90;;;;;;4993548;28;20503;-47
2022/12/31 02:31:04;;;;;;;0.50;0.30;;;8.60;99.90;;;;;;5004577;28;20304;-47
2022/12/31 02:33:39;;;;;;;0.50;0.30;;;8.60;99.90;;;;;;4988752;28;20444;-47
2022/12/31 02:36:13;;;;;;;0.50;0.30;;;8.60;99.90;;;;;;4982287;28;20554;-47
2022/12/31 02:38:45;;;;;;;0.50;0.30;;;8.60;99.90;;;;;;4978332;28;20946;-47
2022/12/31 02:41:48;;;;;;;0.40;0.30;;;8.60;99.90;;;;;;4977400;28;20194;-48
2022/12/31 02:44:20;;;;;;;0.50;0.30;;;8.60;99.90;;;;;;4980514;28;20508;-47
2022/12/31 02:46:57;;;;;;;0.50;0.30;;;8.60;99.90;;;;;;4993485;28;20466;-47
2022/12/31 02:49:39;;;;;;;1.17;0.40;;;8.60;99.90;;;;;;4974131;28;20460;-46
2022/12/31 02:52:16;;;;;;;0.40;0.30;;;8.60;99.90;;;;;;4984576;28;20482;-47
2022/12/31 02:54:53;;;;;;;0.50;0.30;;;8.60;99.90;;;;;;4990852;28;20271;-47
2022/12/31 02:57:29;;;;;;;0.50;0.30;;;8.60;99.90;;;;;;4987337;28;20225;-47
2022/12/31 03:02:51;;;;;;;0.40;0.30;;;8.60;99.90;;;;;;4973496;28;20520;-46
2022/12/31 03:05:23;;;;;;;0.60;0.40;;;8.60;99.90;;;;;;4988706;28;20437;-47
2022/12/31 03:07:52;;;;;;;0.90;0.30;;;8.60;99.90;;;;;;4982146;28;20480;-47
2022/12/31 03:10:20;;;;;;;0.40;0.30;;;8.60;99.90;;;;;;4992746;28;20217;-50
2022/12/31 03:12:48;;;;;;;0.50;0.30;;;8.60;99.90;;;;;;4982983;28;20707;-47
2022/12/31 03:15:22;;;;;;;0.50;0.40;;;8.70;99.90;;;;;;4982113;28;20457;-47
2022/12/31 03:17:55;;;;;;;0.57;0.30;;;8.60;99.90;;;;;;4987802;28;20472;-47
2022/12/31 03:23:21;;;;;;;0.40;0.20;;;8.70;99.90;;;;;;4983539;28;20459;-47
2022/12/31 03:25:49;;;;;;;0.40;0.30;;;8.60;99.90;;;;;;4987488;28;20472;-48
2022/12/31 03:28:20;;;;;;;0.83;0.50;;;8.70;99.90;;;;;;4996070;28;20507;-45
2022/12/31 03:30:52;;;;;;;0.90;0.40;;;8.60;99.90;;;;;;4989899;28;20464;-47
2022/12/31 03:33:23;;;;;;;0.50;0.30;;;8.70;99.90;;;;;;4989439;28;20457;-47
2022/12/31 03:35:54;;;;;;;0.50;0.30;;;8.60;99.90;;;;;;4992832;28;21024;-46
2022/12/31 03:38:22;;;;;;;0.40;0.30;;;8.70;99.90;;;;;;4989702;28;20461;-47
2022/12/31 03:40:53;;;;;;;0.80;0.30;;;8.70;99.90;;;;;;4986059;28;20197;-48
2022/12/31 03:43:21;;;;;;;0.60;0.43;;;8.70;99.90;;;;;;5001134;28;20441;-45
2022/12/31 03:45:51;;;;;;;0.40;0.27;;;8.70;99.90;;;;;;4986416;28;21017;-45
2022/12/31 03:48:23;;;;;;;0.60;0.30;;;8.70;99.90;;;;;;4975061;28;20453;-48
2022/12/31 03:50:51;;;;;;;0.40;0.37;;;8.70;99.90;;;;;;4992020;28;20464;-46
2022/12/31 03:53:20;;;;;;;0.60;0.40;;;8.70;99.90;;;;;;4987003;28;20445;-46
2022/12/31 03:55:52;;;;;;;0.40;0.30;;;8.70;99.90;;;;;;4987965;28;20912;-47
2022/12/31 03:58:21;;;;;;;0.67;0.33;;;8.70;99.90;;;;;;4998118;28;20459;-48
2022/12/31 04:00:49;;;;;;;0.60;0.30;;;8.70;99.90;;;;;;4995625;28;20462;-48
2022/12/31 04:03:18;;;;;;;1.07;0.30;;;8.70;99.90;;;;;;4989094;28;20436;-47
2022/12/31 04:05:53;;;;;;;0.50;0.30;;;8.70;99.90;;;;;;4986118;28;20457;-48
2022/12/31 04:08:22;;;;;;;0.40;0.27;;;8.70;99.90;;;;;;4975984;28;20461;-46
2022/12/31 04:10:51;;;;;;;0.50;0.30;;;8.70;99.90;;;;;;4989969;28;20504;-47
2022/12/31 04:13:19;;;;;;;0.40;0.30;;;8.80;99.90;;;;;;4989282;28;20437;-47
2022/12/31 04:15:50;;;;;;;0.70;0.30;;;8.80;99.90;;;;;;4981151;28;20499;-47
2022/12/31 04:18:19;;;;;;;0.50;0.30;;;8.80;99.90;;;;;;4993692;28;20445;-47
2022/12/31 04:20:47;;;;;;;1.00;0.40;;;8.80;99.90;;;;;;5005094;28;20531;-47
2022/12/31 04:23:18;;;;;;;0.50;0.30;;;8.80;99.90;;;;;;5001283;28;20583;-47
2022/12/31 04:25:47;;;;;;;0.40;0.30;;;8.80;99.90;;;;;;4978582;28;20525;-46
2022/12/31 04:28:16;;;;;;;0.40;0.30;;;8.80;99.90;;;;;;4989165;28;20496;-45
2022/12/31 04:30:44;;;;;;;0.60;0.40;;;8.80;99.90;;;;;;4981716;28;20478;-46
2022/12/31 04:33:13;;;;;;;0.40;0.30;;;8.80;99.90;;;;;;4993315;28;20452;-48
2022/12/31 04:35:42;;;;;;;0.53;0.50;;;8.80;99.90;;;;;;4999876;28;20436;-48
2022/12/31 04:38:10;;;;;;;0.60;0.30;;;8.80;99.90;;;;;;4987812;28;20469;-47
2022/12/31 04:41:15;;;;;;;0.43;0.30;;;8.80;99.90;;;;;;4991604;28;20518;-48
2022/12/31 04:43:29;;;;;;;0.50;0.30;;;8.80;99.90;;;;;;5006596;28;20445;-47
2022/12/31 04:45:57;;;;;;;0.53;0.30;;;8.80;99.90;;;;;;4996508;28;20449;-47
2022/12/31 04:48:26;;;;;;;0.70;0.30;;;8.80;99.90;;;;;;5009338;28;20445;-46
2022/12/31 04:50:57;;;;;;;0.40;0.20;;;8.80;99.90;;;;;;5014486;28;20441;-47
2022/12/31 04:53:26;;;;;;;0.60;0.30;;;8.80;99.90;;;;;;5012047;28;20492;-45
2022/12/31 04:55:56;;;;;;;0.70;0.50;;;8.80;99.90;;;;;;5014061;28;20965;-47
2022/12/31 04:58:24;;;;;;;0.40;0.30;;;8.80;99.90;;;;;;5000023;28;20461;-46
2022/12/31 05:00:54;;;;;;;0.50;0.43;;;8.80;99.90;;;;;;4993238;28;20453;-48
2022/12/31 05:03:24;;;;;;;0.50;0.30;;;8.80;99.90;;;;;;4997315;28;20465;-48
2022/12/31 05:05:54;;;;;;;0.43;0.30;;;8.80;99.90;;;;;;4978618;28;20434;-48
2022/12/31 05:08:22;;;;;;;0.50;0.30;;;8.80;99.90;;;;;;4984032;28;20564;-45
2022/12/31 05:10:51;;;;;;;2.40;0.83;;;8.80;99.90;;;;;;4982468;28;21009;-46
2022/12/31 05:13:21;;;;;;;1.33;0.40;;;8.90;99.90;;;;;;4999470;28;20476;-48
2022/12/31 05:15:53;;;;;;;0.73;0.30;;;8.90;99.90;;;;;;4982243;28;20459;-48
2022/12/31 05:18:22;;;;;;;0.70;0.40;;;8.90;99.90;;;;;;4981360;28;20491;-48
2022/12/31 05:20:51;;;;;;;0.60;0.43;;;8.90;99.90;;;;;;4991583;28;20466;-47
2022/12/31 05:23:20;;;;;;;0.80;0.40;;;8.90;99.90;;;;;;4982522;28;20437;-48
2022/12/31 05:25:49;;;;;;;1.53;0.57;;;8.90;99.90;;;;;;4983613;28;20429;-46
2022/12/31 05:28:18;;;;;;;0.40;0.30;;;8.90;99.90;;;;;;5002119;28;20537;-46
2022/12/31 05:30:50;;;;;;;1.30;0.30;;;8.90;99.90;;;;;;4983528;28;20449;-47
2022/12/31 05:33:19;;;;;;;0.70;0.40;;;8.90;99.90;;;;;;4997552;28;20468;-48
2022/12/31 05:35:48;;;;;;;0.40;0.30;;;8.90;99.90;;;;;;4983124;28;20468;-47
2022/12/31 05:38:16;;;;;;;1.40;0.57;;;8.90;99.90;;;;;;4987815;28;20728;-46
2022/12/31 05:40:45;;;;;;;0.40;0.30;;;8.90;99.90;;;;;;4996651;28;21153;-46
2022/12/31 05:43:14;;;;;;;0.70;0.47;;;8.90;99.90;;;;;;4987765;28;20528;-48
2022/12/31 05:45:43;;;;;;;0.60;0.30;;;8.90;99.90;;;;;;4978169;28;20448;-48
2022/12/31 05:48:13;;;;;;;0.50;0.40;;;8.90;99.90;;;;;;4992882;28;20466;-48
2022/12/31 05:50:42;;;;;;;0.50;0.30;;;8.90;99.90;;;;;;4977835;28;20461;-47
2022/12/31 05:53:11;;;;;;;0.87;0.47;;;8.90;99.90;;;;;;4975105;28;20473;-47
2022/12/31 05:55:40;;;;;;;0.60;0.40;;;8.90;99.90;;;;;;4988501;28;20440;-47
2022/12/31 05:58:08;;;;;;;0.97;0.40;;;8.90;99.90;;;;;;5003636;28;20988;-48
2022/12/31 06:00:38;;;;;;;0.60;0.50;;;8.90;99.90;;;;;;4980030;28;20554;-45
2022/12/31 06:03:06;;;;;;;1.47;0.30;;;8.90;99.90;;;;;;4981811;28;20429;-47
2022/12/31 06:05:39;;;;;;;0.77;0.40;;;8.90;99.90;;;;;;4990184;28;20430;-46
2022/12/31 06:08:08;;;;;;;0.70;0.40;;;8.90;99.90;;;;;;4986018;28;20468;-47
2022/12/31 06:10:37;;;;;;;1.13;0.50;;;9.00;99.90;;;;;;4973477;28;21242;-47
2022/12/31 06:13:05;;;;;;;0.60;0.40;;;9.00;99.90;;;;;;4987245;28;20476;-45
2022/12/31 06:15:38;;;;;;;1.70;0.40;;;9.00;99.90;;;;;;4999744;28;20855;-50
2022/12/31 06:18:07;;;;;;;0.50;0.30;;;9.00;99.90;;;;;;4976159;28;20454;-46
2022/12/31 06:20:38;;;;;;;0.97;0.40;;;9.00;99.90;;;;;;4998960;28;21423;-46
2022/12/31 06:23:07;;;;;;;0.50;0.33;;;9.00;99.90;;;;;;4988917;28;20985;-46
2022/12/31 06:25:38;;;;;;;0.50;0.30;;;9.00;99.90;;;;;;4962489;28;20454;-46
2022/12/31 06:28:09;;;;;;;0.70;0.40;;;9.00;99.90;;;;;;4976087;28;20461;-46
2022/12/31 06:30:45;;;;;;;1.90;0.50;;;9.00;99.90;;;;;;4985757;28;20472;-46
2022/12/31 06:33:13;;;;;;;0.80;0.50;;;9.00;99.90;;;;;;4974630;28;20473;-46
2022/12/31 06:35:43;;;;;;;0.50;0.40;;;9.00;99.90;;;;;;4985777;28;20468;-46
2022/12/31 06:38:12;;;;;;;1.03;0.60;;;9.00;99.90;;;;;;4997024;28;20876;-48
2022/12/31 06:40:41;;;;;;;0.70;0.30;;;9.00;99.90;;;;;;4985819;28;20473;-45
2022/12/31 06:43:09;;;;;;;0.80;0.40;;;9.00;99.90;;;;;;4994004;28;20916;-48
2022/12/31 06:45:38;;;;;;;0.60;0.30;;;9.00;99.90;;;;;;4981303;28;20434;-48
2022/12/31 06:48:07;;;;;;;0.83;0.40;;;9.00;99.90;;;;;;4996215;28;20477;-46
2022/12/31 06:50:36;;;;;;;0.90;0.50;;;9.00;99.90;;;;;;4999738;28;20873;-45
2022/12/31 06:53:05;;;;;;;0.50;0.50;;;9.00;99.90;;;;;;4988999;28;20476;-48
2022/12/31 06:55:35;;;;;;;0.60;0.50;;;9.00;99.90;;;;;;5004072;28;20957;-47
2022/12/31 06:58:04;;;;;;;0.80;0.50;;;9.00;99.90;;;;;;4986425;28;20468;-47
2022/12/31 07:00:33;;;;;;;0.60;0.40;;;9.00;99.90;;;;;;4997782;28;20446;-48
2022/12/31 07:03:23;;;;;;;0.50;0.40;;;9.10;99.90;;;;;;4982960;28;20457;-47
2022/12/31 07:05:59;;;;;;;0.60;0.30;;;9.00;99.90;;;;;;5005659;28;20887;-46
2022/12/31 07:08:44;;;;;;;0.50;0.30;;;9.10;99.90;;;;;;4987798;28;20548;-48
2022/12/31 07:11:20;;;;;;;0.70;0.50;;;9.10;99.90;;;;;;4992741;28;20477;-47
2022/12/31 07:14:07;;;;;;;0.40;0.30;;;9.10;99.90;;;;;;4988141;28;20481;-46
2022/12/31 07:16:46;;;;;;;0.83;0.50;;;9.10;99.90;;;;;;4980126;28;20517;-48
2022/12/31 07:19:23;;;;;;;0.90;0.40;;;9.10;99.90;;;;;;4984124;28;20489;-46
2022/12/31 07:21:54;;;;;;;0.60;0.50;;;9.10;99.90;;;;;;4980767;28;20473;-47
2022/12/31 07:24:25;;;;;;;1.40;0.53;;;9.10;99.90;;;;;;4991998;28;20483;-44
2022/12/31 07:27:17;;;;;;;1.20;0.30;;;9.10;99.90;;;;;;4997004;28;20457;-45
2022/12/31 07:29:59;;;;;;;0.63;0.50;;;9.10;99.90;;;;;;4992691;28;20504;-46
2022/12/31 07:32:54;;;;;;;0.50;0.40;;;9.10;99.90;;;;;;4981132;28;20460;-46
2022/12/31 07:35:30;;;;;;;2.70;0.70;;;9.10;99.90;;;;;;5012501;28;20437;-46
2022/12/31 07:38:12;;;;;;;0.60;0.57;;;9.10;99.90;;;;;;5000801;28;20472;-45
2022/12/31 07:40:54;;;;;;;0.70;0.43;;;9.10;99.90;;;;;;5003203;28;20448;-46
2022/12/31 07:43:31;;;;;;;0.87;0.40;;;9.10;99.90;;;;;;4984324;28;20422;-46
2022/12/31 07:46:07;;;;;;;3.27;0.60;;;9.10;99.90;;;;;;5006283;28;20476;-47
2022/12/31 07:48:36;;;;;;;0.50;0.40;;;9.10;99.90;;;;;;4974265;28;20982;-46
2022/12/31 07:51:06;;;;;;;0.70;0.43;;;9.10;99.90;;;;;;4992725;28;20441;-46
2022/12/31 07:53:36;;;;;;;1.27;0.50;;;9.10;99.90;;;;;;4996151;28;20502;-45
2022/12/31 07:56:08;;;;;;;0.50;0.40;;;9.20;99.90;;;;;;4984660;28;21020;-46
2022/12/31 07:58:56;;;;;;;0.53;0.40;;;9.20;99.90;;;;;;5001636;28;20488;-46
2022/12/31 08:01:34;;;;;;;0.70;0.50;;;9.20;99.90;;;;;;4995899;28;20575;-47
2022/12/31 08:04:09;;;;;;;2.70;0.50;;;9.20;99.90;;;;;;5007167;28;20822;-47
2022/12/31 08:06:46;;;;;;;3.17;0.50;;;9.20;99.90;;;;;;5005603;28;20575;-46
2022/12/31 08:09:29;;;;;;;0.87;0.60;;;9.20;99.90;;;;;;4994566;28;20856;-46
2022/12/31 08:12:01;;;;;;;0.40;0.30;;;9.20;99.90;;;;;;4984313;28;20484;-46
2022/12/31 08:14:30;;;;;;;0.97;0.43;;;9.20;99.90;;;;;;4991466;28;21032;-47
2022/12/31 08:16:59;;;;;;;0.50;0.50;;;9.20;99.90;;;;;;4981155;28;20547;-46
2022/12/31 08:19:31;;;;;;;1.37;0.47;;;9.20;99.90;;;;;;4987534;28;20465;-48
2022/12/31 08:22:19;;;;;;;0.90;0.40;;;9.20;99.90;;;;;;4976594;28;20896;-46
2022/12/31 08:25:02;;;;;;;0.57;0.50;;;9.20;99.90;;;;;;4997461;28;20454;-47
2022/12/31 08:27:40;;;;;;;0.73;0.40;;;9.20;99.90;;;;;;4980998;28;20485;-46
2022/12/31 08:30:13;;;;;;;0.50;0.40;;;9.20;99.90;;;;;;4992389;28;20461;-47
2022/12/31 08:32:50;;;;;;;0.70;0.30;;;9.20;99.90;;;;;;4977778;28;20456;-46
2022/12/31 08:35:30;;;;;;;0.93;0.47;;;9.20;99.90;;;;;;4997201;28;20487;-46
2022/12/31 08:38:16;;;;;;;0.80;0.80;;;9.20;99.90;;;;;;4992982;28;21053;-46
2022/12/31 08:40:54;;;;;;;0.70;0.43;;;9.20;99.90;;;;;;4990005;28;21020;-46
2022/12/31 08:43:40;;;;;;;1.23;0.60;;;9.20;99.90;;;;;;4976566;28;20445;-48
2022/12/31 08:46:20;;;;;;;1.00;0.77;;;9.20;99.90;;;;;;4974682;28;20497;-45
2022/12/31 08:48:50;;;;;;;0.67;0.50;;;9.20;99.90;;;;;;4998908;28;20920;-45
2022/12/31 08:51:21;;;;;;;1.20;0.60;;;9.20;99.90;;;;;;4993132;28;20441;-46
2022/12/31 08:53:51;;;;;;;0.80;0.50;;;9.30;99.90;;;;;;4989988;28;20558;-45
2022/12/31 08:56:27;;;;;;;0.83;0.40;;;9.30;99.90;;;;;;4979790;28;20946;-45
2022/12/31 08:59:12;;;;;;;1.17;0.60;;;9.30;99.90;;;;;;4993526;28;20477;-46
2022/12/31 09:01:54;;;;;;;0.63;0.40;;;9.30;99.90;;;;;;4979848;28;20501;-46
2022/12/31 09:04:30;;;;;;;0.87;0.60;;;9.30;99.90;;;;;;4999001;28;20485;-46
2022/12/31 09:07:01;;;;;;;1.10;0.80;;;9.30;99.90;;;;;;4975794;28;20484;-47
2022/12/31 09:09:41;;;;;;;0.73;0.43;;;9.30;99.90;;;;;;4979263;28;20992;-47
2022/12/31 09:12:16;;;;;;;0.80;0.53;;;9.30;99.90;;;;;;5006411;28;20485;-45
2022/12/31 09:14:55;;;;;;;0.80;0.60;;;9.30;99.90;;;;;;4984523;28;20568;-46
2022/12/31 09:17:43;;;;;;;1.10;0.70;;;9.30;99.90;;;;;;4993888;28;21013;-45
2022/12/31 09:20:20;;;;;;;0.60;0.50;;;9.30;99.90;;;;;;4995002;28;20437;-46
2022/12/31 09:22:50;;;;;;;3.10;0.70;;;9.30;99.90;;;;;;4980255;28;20536;-46
2022/12/31 09:25:21;;;;;;;0.90;0.50;;;9.40;99.90;;;;;;4993561;28;20437;-47
2022/12/31 09:28:14;;;;;;;1.13;0.50;;;9.40;99.90;;;;;;4983838;28;20464;-46
2022/12/31 09:30:56;;;;;;;1.27;0.77;;;9.40;99.90;;;;;;4981165;28;20516;-45
2022/12/31 09:33:42;;;;;;;0.50;0.40;;;9.40;99.90;;;;;;4996260;28;20819;-46
2022/12/31 09:36:17;;;;;;;0.93;0.43;;;9.40;99.90;;;;;;4996999;28;20481;-47
2022/12/31 09:38:52;;;;;;;1.03;0.50;;;9.40;99.90;;;;;;4984068;28;20474;-47
2022/12/31 09:41:54;;;;;;;1.80;0.80;;;9.40;99.90;;;;;;4977416;28;20441;-46
2022/12/31 09:45:11;;;;;;;1.53;1.07;;;9.40;99.90;;;;;;4980355;28;20441;-48
2022/12/31 09:48:13;;;;;;;0.80;0.60;;;9.40;99.90;;;;;;4922168;29;20479;-46
2022/12/31 09:51:12;;;;;;;1.33;0.90;;;9.40;99.90;;;;;;4931517;28;20494;-45
2022/12/31 09:54:27;;;;;;;1.13;0.80;;;9.40;99.90;;;;;;4979111;28;20453;-47
2022/12/31 09:57:21;;;;;;;0.63;0.50;;;9.50;99.90;;;;;;4918965;29;20688;-46
2022/12/31 09:59:57;;;;;;;0.67;0.50;;;9.40;99.90;;;;;;4893013;29;20456;-45
2022/12/31 10:02:47;;;;;;;0.80;0.50;;;9.50;99.90;;;;;;4979149;28;20981;-45
2022/12/31 10:05:40;;;;;;;2.10;1.17;;;9.50;99.90;;;;;;4989068;28;20476;-47
2022/12/31 10:08:20;;;;;;;1.60;0.63;;;9.60;99.90;;;;;;4994063;28;20528;-45
2022/12/31 10:10:56;;;;;;;1.50;0.50;;;9.60;99.90;;;;;;4965265;28;20484;-47
2022/12/31 10:13:52;;;;;;;3.30;1.10;;;9.60;99.90;;;;;;4976411;28;20452;-45
2022/12/31 10:16:41;;;;;;;1.00;0.70;;;9.70;99.90;;;;;;4997867;28;20768;-47
2022/12/31 10:19:42;;;;;;;1.27;0.90;;;9.80;99.90;;;;;;5001033;28;20457;-46
2022/12/31 10:22:40;;;;;;;1.00;0.57;;;9.80;99.90;;;;;;4983538;28;20952;-46
2022/12/31 10:25:26;;;;;;;2.40;0.70;;;9.70;99.90;;;;;;4982035;28;20524;-46
2022/12/31 10:28:18;;;;;;;1.07;0.90;;;9.70;99.90;;;;;;4987725;28;20464;-46
2022/12/31 10:30:56;;;;;;;1.07;0.70;;;9.70;99.90;;;;;;5003279;28;20455;-47
2022/12/31 10:33:39;;;;;;;1.63;1.00;;;9.70;99.90;;;;;;4977852;28;20820;-45
2022/12/31 10:36:15;;;;;;;193.80;21.00;;;9.70;99.90;;;;;;4983047;28;20477;-46
2022/12/31 10:38:57;;;;;;;2.70;1.30;;;9.90;99.90;;;;;;5004050;28;20478;-46
2022/12/31 10:41:59;;;;;;;2.30;0.80;;;10.00;99.90;;;;;;4977305;28;20449;-47
2022/12/31 10:45:02;;;;;;;2.40;0.60;;;10.00;99.90;;;;;;4978539;28;20507;-46
2022/12/31 10:48:24;;;;;;;1.87;0.73;;;10.10;99.90;;;;;;4998246;28;20925;-47
2022/12/31 10:51:19;;;;;;;2.03;0.90;;;10.20;99.90;;;;;;4993872;28;20448;-47
2022/12/31 10:54:19;;;;;;;2.10;0.90;;;10.20;99.90;;;;;;4960675;28;20502;-48
2022/12/31 10:57:14;;;;;;;2.83;0.77;;;10.10;99.90;;;;;;5001952;28;20495;-45
2022/12/31 11:00:07;;;;;;;1.97;0.70;;;10.10;99.90;;;;;;4984182;28;20472;-46
2022/12/31 11:03:07;;;;;;;5.23;0.77;;;10.10;99.90;;;;;;4979413;28;20503;-46
2022/12/31 11:06:05;;;;;;;2.37;1.13;;;10.10;99.90;;;;;;4972393;28;20950;-46
2022/12/31 11:09:10;;;;;;;1.37;0.73;;;10.00;99.90;;;;;;4944947;28;20506;-46
2022/12/31 11:11:48;;;;;;;2.07;1.20;;;10.00;99.90;;;;;;5000340;28;20469;-47
2022/12/31 11:15:01;;;;;;;1.57;0.70;;;10.00;99.90;;;;;;5001175;28;20482;-48
2022/12/31 11:17:44;;;;;;;1.37;1.27;;;9.90;99.90;;;;;;4986296;28;20672;-47
2022/12/31 11:20:34;;;;;;;0.70;0.70;;;9.90;99.90;;;;;;4985235;28;20452;-45
2022/12/31 11:23:16;;;;;;;1.93;0.70;;;9.90;99.90;;;;;;5008642;28;20467;-46
2022/12/31 11:26:00;;;;;;;3.17;0.93;;;9.90;99.90;;;;;;4968246;28;20979;-47
2022/12/31 11:28:57;;;;;;;2.20;0.67;;;9.90;99.90;;;;;;5004975;28;20559;-46
2022/12/31 11:31:52;;;;;;;2.07;0.87;;;9.90;99.90;;;;;;4984459;28;20468;-48
2022/12/31 11:34:59;;;;;;;2.23;0.70;;;9.90;99.90;;;;;;4990562;28;20443;-45
2022/12/31 11:37:44;;;;;;;2.10;0.90;;;9.90;99.90;;;;;;4979887;28;20476;-46
2022/12/31 11:40:24;;;;;;;1.57;0.87;;;9.90;99.90;;;;;;4997408;28;20449;-47
2022/12/31 11:42:58;;;;;;;2.00;0.93;;;9.90;99.90;;;;;;5005323;28;20472;-47
2022/12/31 11:45:52;;;;;;;0.90;0.67;;;9.90;99.90;;;;;;4999383;28;20464;-47
2022/12/31 11:48:28;;;;;;;1.00;0.80;;;9.90;99.90;;;;;;4990032;28;20558;-46
2022/12/31 11:51:15;;;;;;;1.10;0.80;;;9.90;99.90;;;;;;4980471;28;20528;-47
2022/12/31 11:54:04;;;;;;;1.57;0.83;;;9.90;99.90;;;;;;4995978;28;20464;-46
2022/12/31 11:56:38;;;;;;;2.17;1.23;;;9.90;99.90;;;;;;4992997;28;20906;-50
2022/12/31 11:59:12;;;;;;;0.80;0.80;;;9.90;99.90;;;;;;4979362;28;20466;-48
2022/12/31 12:01:52;;;;;;;1.40;0.60;;;9.90;99.90;;;;;;4996321;28;21068;-47
2022/12/31 12:04:21;;;;;;;2.20;0.60;;;9.90;99.90;;;;;;4989733;28;20851;-46
2022/12/31 12:06:50;;;;;;;2.77;0.70;;;9.90;99.90;;;;;;4985603;28;20918;-47
2022/12/31 12:09:45;;;;;;;3.53;0.90;;;9.90;99.90;;;;;;4994643;28;20545;-48
2022/12/31 12:12:14;;;;;;;0.70;0.60;;;9.90;99.90;;;;;;5003175;28;20949;-46
2022/12/31 12:14:49;;;;;;;0.80;0.80;;;9.90;99.90;;;;;;4985608;28;20450;-48
2022/12/31 12:35:42;;;;;;;0.70;0.70;;;9.90;99.90;;;;;;5004251;28;21031;-47
2022/12/31 12:38:15;;;;;;;2.40;0.90;;;9.90;99.90;;;;;;4981842;28;20520;-46
2022/12/31 12:40:55;;;;;;;1.03;0.63;;;10.00;99.90;;;;;;4988393;28;20473;-47
2022/12/31 12:43:27;;;;;;;0.90;0.70;;;10.00;99.90;;;;;;5008167;28;20857;-47
2022/12/31 12:46:02;;;;;;;1.33;0.60;;;9.90;99.90;;;;;;4983739;28;22241;-46
2022/12/31 12:48:37;;;;;;;2.13;0.80;;;10.00;99.90;;;;;;4984411;28;20493;-47
2022/12/31 12:51:23;;;;;;;1.27;0.70;;;9.90;99.90;;;;;;4990865;28;20472;-47
2022/12/31 12:53:59;;;;;;;1.67;0.70;;;10.00;99.90;;;;;;4991206;28;20499;-46
2022/12/31 12:56:40;;;;;;;1.97;0.80;;;10.00;99.90;;;;;;4998744;28;20877;-47
2022/12/31 12:59:38;;;;;;;1.77;0.73;;;10.00;99.90;;;;;;4999636;28;20519;-47
2022/12/31 13:02:22;;;;;;;4.63;1.67;;;10.00;99.90;;;;;;5002974;28;20469;-49
2022/12/31 13:05:06;;;;;;;2.67;0.70;;;10.00;99.90;;;;;;5004091;28;20445;-47
2022/12/31 13:07:52;;;;;;;1.10;0.50;;;10.00;99.90;;;;;;4979974;28;20493;-46
2022/12/31 13:10:33;;;;;;;0.70;0.67;;;10.00;99.90;;;;;;4973713;28;20489;-49
2022/12/31 13:13:07;;;;;;;2.67;0.93;;;10.00;99.90;;;;;;4976167;28;20520;-46
2022/12/31 13:16:00;;;;;;;1.50;0.67;;;10.00;99.90;;;;;;4997064;28;21074;-47
2022/12/31 13:18:43;;;;;;;1.33;0.77;;;10.00;99.90;;;;;;4983531;28;20461;-46
2022/12/31 13:21:31;;;;;;;1.47;1.10;;;10.00;99.90;;;;;;4988615;28;20476;-47
2022/12/31 13:24:11;;;;;;;2.10;0.90;;;10.00;99.90;;;;;;4984980;28;20448;-47
2022/12/31 13:26:44;;;;;;;1.17;1.07;;;10.00;99.90;;;;;;4997638;28;20429;-48
2022/12/31 13:29:19;;;;;;;0.90;0.60;;;10.00;99.90;;;;;;4985700;28;20468;-48
2022/12/31 13:31:50;;;;;;;2.20;1.00;;;10.00;99.90;;;;;;4983377;28;20481;-46
2022/12/31 13:34:23;;;;;;;1.17;1.03;;;10.00;99.90;;;;;;4979418;28;20524;-47
2022/12/31 13:36:55;;;;;;;1.53;0.80;;;10.00;99.90;;;;;;4973735;28;20564;-46
2022/12/31 13:39:28;;;;;;;2.50;0.53;;;10.00;99.90;;;;;;4993838;28;20465;-47
2022/12/31 13:42:02;;;;;;;1.97;1.00;;;10.00;99.90;;;;;;4999140;28;20470;-46
2022/12/31 13:44:36;;;;;;;2.40;0.87;;;10.00;99.90;;;;;;4994627;28;20967;-46
2022/12/31 13:47:19;;;;;;;3.70;1.00;;;10.00;99.90;;;;;;4992866;28;20468;-46
2022/12/31 13:49:52;;;;;;;1.67;0.60;;;10.00;99.90;;;;;;4979999;28;20504;-46
2022/12/31 13:52:29;;;;;;;1.17;0.53;;;10.00;99.90;;;;;;4988388;28;20484;-46
2022/12/31 13:55:11;;;;;;;1.50;0.70;;;10.00;99.90;;;;;;5005929;28;20441;-46
2022/12/31 13:57:45;;;;;;;1.17;1.00;;;10.00;99.90;;;;;;4999947;28;20493;-47
2022/12/31 14:00:21;;;;;;;1.20;1.00;;;10.00;99.90;;;;;;4979336;28;20863;-49
2022/12/31 14:02:58;;;;;;;2.07;1.00;;;10.00;99.90;;;;;;4980692;28;20511;-47
2022/12/31 14:05:32;;;;;;;0.80;0.80;;;10.00;99.90;;;;;;4984997;28;20950;-46
2022/12/31 14:08:06;;;;;;;1.53;1.00;;;10.00;99.90;;;;;;4999371;28;21028;-46